sensor_id;sensor_type;location;lat;lon;timestamp;temperature;humidity
46754;DHT22;32500;50.620;3.400;2023-05-02T00:01:43;17.40;81.50
46754;DHT22;32500;50.620;3.400;2023-05-02T00:04:09;17.40;81.40
46754;DHT22;32500;50.620;3.400;2023-05-02T00:06:34;17.40;81.40
46754;DHT22;32500;50.620;3.400;2023-05-02T00:09:00;17.40;81.40
46754;DHT22;32500;50.620;3.400;2023-05-02T00:11:26;17.40;81.30
46754;DHT22;32500;50.620;3.400;2023-05-02T00:13:51;17.40;81.40
46754;DHT22;32500;50.620;3.400;2023-05-02T00:16:17;17.40;81.30
46754;DHT22;32500;50.620;3.400;2023-05-02T00:18:43;17.40;81.30
46754;DHT22;32500;50.620;3.400;2023-05-02T00:21:08;17.30;81.30
46754;DHT22;32500;50.620;3.400;2023-05-02T00:23:34;17.30;81.40
46754;DHT22;32500;50.620;3.400;2023-05-02T00:26:00;17.30;81.40
46754;DHT22;32500;50.620;3.400;2023-05-02T00:28:25;17.30;81.30
46754;DHT22;32500;50.620;3.400;2023-05-02T00:30:51;17.30;81.30
46754;DHT22;32500;50.620;3.400;2023-05-02T00:33:17;17.30;81.40
46754;DHT22;32500;50.620;3.400;2023-05-02T00:35:42;17.30;81.30
46754;DHT22;32500;50.620;3.400;2023-05-02T00:38:08;17.30;82.10
46754;DHT22;32500;50.620;3.400;2023-05-02T00:40:47;17.30;81.40
46754;DHT22;32500;50.620;3.400;2023-05-02T00:43:14;17.30;81.40
46754;DHT22;32500;50.620;3.400;2023-05-02T00:45:41;17.30;81.40
46754;DHT22;32500;50.620;3.400;2023-05-02T00:48:11;17.20;81.30
46754;DHT22;32500;50.620;3.400;2023-05-02T00:50:39;17.30;81.30
46754;DHT22;32500;50.620;3.400;2023-05-02T00:53:05;17.30;81.90
46754;DHT22;32500;50.620;3.400;2023-05-02T00:55:32;17.20;81.20
46754;DHT22;32500;50.620;3.400;2023-05-02T00:58:03;17.30;81.30
46754;DHT22;32500;50.620;3.400;2023-05-02T01:14:50;17.20;81.20
46754;DHT22;32500;50.620;3.400;2023-05-02T01:17:19;17.20;81.20
46754;DHT22;32500;50.620;3.400;2023-05-02T01:19:51;17.20;81.20
46754;DHT22;32500;50.620;3.400;2023-05-02T01:22:18;17.20;81.20
46754;DHT22;32500;50.620;3.400;2023-05-02T01:30:18;17.20;81.20
46754;DHT22;32500;50.620;3.400;2023-05-02T01:32:45;17.20;81.20
46754;DHT22;32500;50.620;3.400;2023-05-02T01:35:14;17.20;81.20
46754;DHT22;32500;50.620;3.400;2023-05-02T01:37:43;17.20;81.20
46754;DHT22;32500;50.620;3.400;2023-05-02T01:40:10;17.10;81.10
46754;DHT22;32500;50.620;3.400;2023-05-02T01:42:37;17.10;81.10
46754;DHT22;32500;50.620;3.400;2023-05-02T01:45:06;17.20;81.20
46754;DHT22;32500;50.620;3.400;2023-05-02T01:47:35;17.10;81.20
46754;DHT22;32500;50.620;3.400;2023-05-02T01:50:03;17.10;81.20
46754;DHT22;32500;50.620;3.400;2023-05-02T01:52:30;17.10;81.10
46754;DHT22;32500;50.620;3.400;2023-05-02T01:54:59;17.10;81.10
46754;DHT22;32500;50.620;3.400;2023-05-02T01:57:26;17.10;81.00
46754;DHT22;32500;50.620;3.400;2023-05-02T01:59:55;17.10;81.10
46754;DHT22;32500;50.620;3.400;2023-05-02T02:02:25;17.10;81.10
46754;DHT22;32500;50.620;3.400;2023-05-02T02:04:53;17.10;81.10
46754;DHT22;32500;50.620;3.400;2023-05-02T02:07:20;17.10;81.10
46754;DHT22;32500;50.620;3.400;2023-05-02T02:09:46;17.10;81.10
46754;DHT22;32500;50.620;3.400;2023-05-02T02:12:16;17.10;81.20
46754;DHT22;32500;50.620;3.400;2023-05-02T02:14:53;17.10;81.20
46754;DHT22;32500;50.620;3.400;2023-05-02T02:17:24;17.10;81.40
46754;DHT22;32500;50.620;3.400;2023-05-02T02:19:52;17.10;81.30
46754;DHT22;32500;50.620;3.400;2023-05-02T02:22:20;17.10;81.40
46754;DHT22;32500;50.620;3.400;2023-05-02T02:24:48;17.10;81.30
46754;DHT22;32500;50.620;3.400;2023-05-02T02:27:14;17.10;81.30
46754;DHT22;32500;50.620;3.400;2023-05-02T02:29:40;17.10;81.20
46754;DHT22;32500;50.620;3.400;2023-05-02T02:32:05;17.00;81.10
46754;DHT22;32500;50.620;3.400;2023-05-02T02:34:31;17.00;81.00
46754;DHT22;32500;50.620;3.400;2023-05-02T02:37:04;17.00;81.10
46754;DHT22;32500;50.620;3.400;2023-05-02T02:42:51;17.00;81.00
46754;DHT22;32500;50.620;3.400;2023-05-02T02:53:16;17.00;81.00
46754;DHT22;32500;50.620;3.400;2023-05-02T02:55:44;17.00;80.90
46754;DHT22;32500;50.620;3.400;2023-05-02T02:58:30;17.00;80.90
46754;DHT22;32500;50.620;3.400;2023-05-02T03:01:03;17.00;80.80
46754;DHT22;32500;50.620;3.400;2023-05-02T03:03:31;17.00;80.80
46754;DHT22;32500;50.620;3.400;2023-05-02T03:05:58;17.00;80.80
46754;DHT22;32500;50.620;3.400;2023-05-02T03:08:24;17.00;80.80
46754;DHT22;32500;50.620;3.400;2023-05-02T03:10:50;17.00;80.60
46754;DHT22;32500;50.620;3.400;2023-05-02T03:13:16;17.00;80.70
46754;DHT22;32500;50.620;3.400;2023-05-02T03:18:17;16.90;80.60
46754;DHT22;32500;50.620;3.400;2023-05-02T03:20:43;16.90;80.60
46754;DHT22;32500;50.620;3.400;2023-05-02T03:23:08;16.90;80.60
46754;DHT22;32500;50.620;3.400;2023-05-02T03:25:34;16.90;80.60
46754;DHT22;32500;50.620;3.400;2023-05-02T03:28:00;16.90;81.30
46754;DHT22;32500;50.620;3.400;2023-05-02T03:30:25;16.90;80.50
46754;DHT22;32500;50.620;3.400;2023-05-02T03:32:51;16.90;80.50
46754;DHT22;32500;50.620;3.400;2023-05-02T03:35:17;16.90;80.50
46754;DHT22;32500;50.620;3.400;2023-05-02T03:37:43;16.90;80.60
46754;DHT22;32500;50.620;3.400;2023-05-02T03:40:09;16.90;80.60
46754;DHT22;32500;50.620;3.400;2023-05-02T03:42:35;16.90;80.70
46754;DHT22;32500;50.620;3.400;2023-05-02T03:45:07;16.90;80.50
46754;DHT22;32500;50.620;3.400;2023-05-02T03:47:33;16.90;80.50
46754;DHT22;32500;50.620;3.400;2023-05-02T03:49:59;16.80;80.40
46754;DHT22;32500;50.620;3.400;2023-05-02T03:52:25;16.90;80.50
46754;DHT22;32500;50.620;3.400;2023-05-02T03:54:51;16.80;80.50
46754;DHT22;32500;50.620;3.400;2023-05-02T03:57:17;16.90;80.50
46754;DHT22;32500;50.620;3.400;2023-05-02T03:59:43;16.80;80.40
46754;DHT22;32500;50.620;3.400;2023-05-02T04:02:12;16.80;80.40
46754;DHT22;32500;50.620;3.400;2023-05-02T04:04:39;16.80;80.40
46754;DHT22;32500;50.620;3.400;2023-05-02T04:07:05;16.80;80.20
46754;DHT22;32500;50.620;3.400;2023-05-02T04:09:32;16.80;80.30
46754;DHT22;32500;50.620;3.400;2023-05-02T04:11:58;16.80;80.30
46754;DHT22;32500;50.620;3.400;2023-05-02T04:14:24;16.80;80.40
46754;DHT22;32500;50.620;3.400;2023-05-02T04:16:51;16.80;80.40
46754;DHT22;32500;50.620;3.400;2023-05-02T04:19:19;16.80;80.30
46754;DHT22;32500;50.620;3.400;2023-05-02T04:21:45;16.80;80.50
46754;DHT22;32500;50.620;3.400;2023-05-02T04:24:12;16.80;80.40
46754;DHT22;32500;50.620;3.400;2023-05-02T04:26:37;16.80;80.50
46754;DHT22;32500;50.620;3.400;2023-05-02T04:29:03;16.80;80.50
46754;DHT22;32500;50.620;3.400;2023-05-02T04:31:30;16.80;80.60
46754;DHT22;32500;50.620;3.400;2023-05-02T04:33:56;16.80;80.60
46754;DHT22;32500;50.620;3.400;2023-05-02T04:36:23;16.80;80.70
46754;DHT22;32500;50.620;3.400;2023-05-02T04:38:49;16.70;80.70
46754;DHT22;32500;50.620;3.400;2023-05-02T04:41:15;16.70;80.60
46754;DHT22;32500;50.620;3.400;2023-05-02T04:43:47;16.70;80.60
46754;DHT22;32500;50.620;3.400;2023-05-02T04:46:15;16.70;80.80
46754;DHT22;32500;50.620;3.400;2023-05-02T04:48:40;16.70;80.80
46754;DHT22;32500;50.620;3.400;2023-05-02T04:51:10;16.70;80.80
46754;DHT22;32500;50.620;3.400;2023-05-02T04:53:36;16.70;80.70
46754;DHT22;32500;50.620;3.400;2023-05-02T04:56:02;16.70;80.80
46754;DHT22;32500;50.620;3.400;2023-05-02T04:58:28;16.70;80.80
46754;DHT22;32500;50.620;3.400;2023-05-02T05:00:53;16.70;80.80
46754;DHT22;32500;50.620;3.400;2023-05-02T05:03:19;16.70;80.70
46754;DHT22;32500;50.620;3.400;2023-05-02T05:05:45;16.70;80.80
46754;DHT22;32500;50.620;3.400;2023-05-02T05:08:11;16.70;80.80
46754;DHT22;32500;50.620;3.400;2023-05-02T05:10:37;16.70;80.80
46754;DHT22;32500;50.620;3.400;2023-05-02T05:13:04;16.60;80.80
46754;DHT22;32500;50.620;3.400;2023-05-02T05:15:30;16.70;80.90
46754;DHT22;32500;50.620;3.400;2023-05-02T05:17:56;16.60;80.90
46754;DHT22;32500;50.620;3.400;2023-05-02T05:20:23;16.60;80.90
46754;DHT22;32500;50.620;3.400;2023-05-02T05:22:48;16.60;81.00
46754;DHT22;32500;50.620;3.400;2023-05-02T05:25:14;16.70;81.00
46754;DHT22;32500;50.620;3.400;2023-05-02T05:27:40;16.60;80.80
46754;DHT22;32500;50.620;3.400;2023-05-02T05:30:06;16.60;80.70
46754;DHT22;32500;50.620;3.400;2023-05-02T05:32:33;16.60;80.60
46754;DHT22;32500;50.620;3.400;2023-05-02T05:35:00;16.60;80.70
46754;DHT22;32500;50.620;3.400;2023-05-02T05:37:25;16.60;80.80
46754;DHT22;32500;50.620;3.400;2023-05-02T05:39:51;16.60;80.10
46754;DHT22;32500;50.620;3.400;2023-05-02T05:42:17;16.60;80.50
46754;DHT22;32500;50.620;3.400;2023-05-02T05:44:42;16.60;80.30
46754;DHT22;32500;50.620;3.400;2023-05-02T05:47:08;16.60;80.70
46754;DHT22;32500;50.620;3.400;2023-05-02T05:49:34;16.60;80.40
46754;DHT22;32500;50.620;3.400;2023-05-02T05:52:03;16.60;80.60
46754;DHT22;32500;50.620;3.400;2023-05-02T05:54:29;16.60;80.60
46754;DHT22;32500;50.620;3.400;2023-05-02T05:56:54;16.60;80.70
46754;DHT22;32500;50.620;3.400;2023-05-02T05:59:20;16.60;80.60
46754;DHT22;32500;50.620;3.400;2023-05-02T06:01:46;16.60;80.50
46754;DHT22;32500;50.620;3.400;2023-05-02T06:04:11;16.60;80.50
46754;DHT22;32500;50.620;3.400;2023-05-02T06:06:37;16.60;80.70
46754;DHT22;32500;50.620;3.400;2023-05-02T06:09:03;16.60;80.60
46754;DHT22;32500;50.620;3.400;2023-05-02T06:11:29;16.60;80.50
46754;DHT22;32500;50.620;3.400;2023-05-02T06:13:54;16.60;80.50
46754;DHT22;32500;50.620;3.400;2023-05-02T06:16:20;16.60;80.50
46754;DHT22;32500;50.620;3.400;2023-05-02T06:18:46;16.60;80.50
46754;DHT22;32500;50.620;3.400;2023-05-02T06:21:12;16.60;80.60
46754;DHT22;32500;50.620;3.400;2023-05-02T06:23:38;16.60;80.70
46754;DHT22;32500;50.620;3.400;2023-05-02T06:26:04;16.60;80.80
46754;DHT22;32500;50.620;3.400;2023-05-02T06:28:31;16.60;80.90
46754;DHT22;32500;50.620;3.400;2023-05-02T06:31:01;16.50;79.40
46754;DHT22;32500;50.620;3.400;2023-05-02T06:33:28;16.50;80.90
46754;DHT22;32500;50.620;3.400;2023-05-02T06:35:53;16.50;80.70
46754;DHT22;32500;50.620;3.400;2023-05-02T06:38:19;16.60;80.60
46754;DHT22;32500;50.620;3.400;2023-05-02T06:40:45;16.60;80.40
46754;DHT22;32500;50.620;3.400;2023-05-02T06:43:11;16.50;80.50
46754;DHT22;32500;50.620;3.400;2023-05-02T06:45:38;16.60;80.60
46754;DHT22;32500;50.620;3.400;2023-05-02T06:48:04;16.60;80.70
46754;DHT22;32500;50.620;3.400;2023-05-02T06:50:30;16.50;80.80
46754;DHT22;32500;50.620;3.400;2023-05-02T06:52:55;16.60;81.00
46754;DHT22;32500;50.620;3.400;2023-05-02T06:55:21;16.50;81.00
46754;DHT22;32500;50.620;3.400;2023-05-02T06:57:50;16.60;81.00
46754;DHT22;32500;50.620;3.400;2023-05-02T07:00:17;16.50;81.20
46754;DHT22;32500;50.620;3.400;2023-05-02T07:02:47;16.60;81.20
46754;DHT22;32500;50.620;3.400;2023-05-02T07:05:13;16.60;81.20
46754;DHT22;32500;50.620;3.400;2023-05-02T07:07:42;16.50;81.10
46754;DHT22;32500;50.620;3.400;2023-05-02T07:10:08;16.60;81.30
46754;DHT22;32500;50.620;3.400;2023-05-02T07:12:34;16.60;81.90
46754;DHT22;32500;50.620;3.400;2023-05-02T07:15:00;16.60;81.10
46754;DHT22;32500;50.620;3.400;2023-05-02T07:17:26;16.50;81.20
46754;DHT22;32500;50.620;3.400;2023-05-02T07:19:52;16.50;81.10
46754;DHT22;32500;50.620;3.400;2023-05-02T07:22:19;16.50;81.20
46754;DHT22;32500;50.620;3.400;2023-05-02T07:24:45;16.50;81.10
46754;DHT22;32500;50.620;3.400;2023-05-02T07:27:11;16.50;81.20
46754;DHT22;32500;50.620;3.400;2023-05-02T07:29:38;16.60;81.60
46754;DHT22;32500;50.620;3.400;2023-05-02T07:32:04;16.50;81.30
46754;DHT22;32500;50.620;3.400;2023-05-02T07:34:31;16.60;81.30
46754;DHT22;32500;50.620;3.400;2023-05-02T07:36:57;16.60;81.20
46754;DHT22;32500;50.620;3.400;2023-05-02T07:39:24;16.60;81.20
46754;DHT22;32500;50.620;3.400;2023-05-02T07:41:53;16.60;81.20
46754;DHT22;32500;50.620;3.400;2023-05-02T07:44:20;16.60;81.20
46754;DHT22;32500;50.620;3.400;2023-05-02T07:46:46;16.60;81.10
46754;DHT22;32500;50.620;3.400;2023-05-02T07:49:12;16.60;81.10
46754;DHT22;32500;50.620;3.400;2023-05-02T07:51:37;16.60;81.20
46754;DHT22;32500;50.620;3.400;2023-05-02T07:54:14;16.60;81.20
46754;DHT22;32500;50.620;3.400;2023-05-02T07:56:41;16.60;81.00
46754;DHT22;32500;50.620;3.400;2023-05-02T07:59:07;16.60;81.00
46754;DHT22;32500;50.620;3.400;2023-05-02T08:01:34;16.60;80.80
46754;DHT22;32500;50.620;3.400;2023-05-02T08:03:59;16.60;81.00
46754;DHT22;32500;50.620;3.400;2023-05-02T08:06:25;16.60;80.90
46754;DHT22;32500;50.620;3.400;2023-05-02T08:08:51;16.60;81.10
46754;DHT22;32500;50.620;3.400;2023-05-02T08:11:16;16.60;81.10
46754;DHT22;32500;50.620;3.400;2023-05-02T08:13:42;16.60;81.20
46754;DHT22;32500;50.620;3.400;2023-05-02T08:16:08;16.60;80.70
46754;DHT22;32500;50.620;3.400;2023-05-02T08:18:33;16.60;80.70
46754;DHT22;32500;50.620;3.400;2023-05-02T08:20:59;16.60;80.90
46754;DHT22;32500;50.620;3.400;2023-05-02T08:23:25;16.70;80.80
46754;DHT22;32500;50.620;3.400;2023-05-02T08:25:50;16.70;80.70
46754;DHT22;32500;50.620;3.400;2023-05-02T08:28:16;16.70;80.50
46754;DHT22;32500;50.620;3.400;2023-05-02T08:30:43;16.70;80.20
46754;DHT22;32500;50.620;3.400;2023-05-02T08:33:09;16.70;79.90
46754;DHT22;32500;50.620;3.400;2023-05-02T08:35:35;16.70;80.20
46754;DHT22;32500;50.620;3.400;2023-05-02T08:38:01;16.70;80.10
46754;DHT22;32500;50.620;3.400;2023-05-02T08:40:27;16.70;80.10
46754;DHT22;32500;50.620;3.400;2023-05-02T08:42:53;16.70;80.30
46754;DHT22;32500;50.620;3.400;2023-05-02T08:45:19;16.70;79.90
46754;DHT22;32500;50.620;3.400;2023-05-02T08:47:46;16.80;80.20
46754;DHT22;32500;50.620;3.400;2023-05-02T08:50:16;16.80;79.80
46754;DHT22;32500;50.620;3.400;2023-05-02T08:52:42;16.80;79.50
46754;DHT22;32500;50.620;3.400;2023-05-02T08:55:11;16.80;79.70
46754;DHT22;32500;50.620;3.400;2023-05-02T08:57:37;16.80;79.40
46754;DHT22;32500;50.620;3.400;2023-05-02T09:00:04;16.80;79.60
46754;DHT22;32500;50.620;3.400;2023-05-02T09:02:50;16.80;79.80
46754;DHT22;32500;50.620;3.400;2023-05-02T09:05:19;16.80;79.60
46754;DHT22;32500;50.620;3.400;2023-05-02T09:07:49;16.80;79.50
46754;DHT22;32500;50.620;3.400;2023-05-02T09:10:15;16.80;79.60
46754;DHT22;32500;50.620;3.400;2023-05-02T09:12:41;16.80;79.40
46754;DHT22;32500;50.620;3.400;2023-05-02T09:15:15;16.80;79.80
46754;DHT22;32500;50.620;3.400;2023-05-02T09:17:42;16.80;79.70
46754;DHT22;32500;50.620;3.400;2023-05-02T09:20:13;16.80;79.50
46754;DHT22;32500;50.620;3.400;2023-05-02T09:22:50;16.90;79.30
46754;DHT22;32500;50.620;3.400;2023-05-02T09:25:16;16.90;79.30
46754;DHT22;32500;50.620;3.400;2023-05-02T09:27:55;16.90;79.30
46754;DHT22;32500;50.620;3.400;2023-05-02T09:30:23;16.90;79.30
46754;DHT22;32500;50.620;3.400;2023-05-02T09:32:50;16.90;79.40
46754;DHT22;32500;50.620;3.400;2023-05-02T09:35:16;16.90;79.50
46754;DHT22;32500;50.620;3.400;2023-05-02T09:37:56;16.90;79.30
46754;DHT22;32500;50.620;3.400;2023-05-02T09:40:23;16.90;79.30
46754;DHT22;32500;50.620;3.400;2023-05-02T09:42:50;16.90;79.40
46754;DHT22;32500;50.620;3.400;2023-05-02T09:45:23;16.90;80.10
46754;DHT22;32500;50.620;3.400;2023-05-02T09:47:49;16.90;79.40
46754;DHT22;32500;50.620;3.400;2023-05-02T09:53:02;17.00;79.40
46754;DHT22;32500;50.620;3.400;2023-05-02T09:55:28;17.00;79.40
46754;DHT22;32500;50.620;3.400;2023-05-02T09:57:53;17.00;79.10
46754;DHT22;32500;50.620;3.400;2023-05-02T10:00:19;17.00;79.60
46754;DHT22;32500;50.620;3.400;2023-05-02T10:02:47;17.00;79.70
46754;DHT22;32500;50.620;3.400;2023-05-02T10:05:15;17.00;79.60
46754;DHT22;32500;50.620;3.400;2023-05-02T10:07:43;17.00;79.70
46754;DHT22;32500;50.620;3.400;2023-05-02T10:10:13;17.00;79.70
46754;DHT22;32500;50.620;3.400;2023-05-02T10:12:41;17.00;79.70
46754;DHT22;32500;50.620;3.400;2023-05-02T10:15:09;17.10;80.10
46754;DHT22;32500;50.620;3.400;2023-05-02T10:17:46;17.00;80.20
46754;DHT22;32500;50.620;3.400;2023-05-02T10:20:16;17.10;80.30
46754;DHT22;32500;50.620;3.400;2023-05-02T10:22:44;17.10;80.30
46754;DHT22;32500;50.620;3.400;2023-05-02T10:25:12;17.10;79.80
46754;DHT22;32500;50.620;3.400;2023-05-02T10:27:37;17.10;79.60
46754;DHT22;32500;50.620;3.400;2023-05-02T10:30:04;17.10;79.80
46754;DHT22;32500;50.620;3.400;2023-05-02T10:32:32;17.10;79.80
46754;DHT22;32500;50.620;3.400;2023-05-02T10:35:03;17.10;79.80
46754;DHT22;32500;50.620;3.400;2023-05-02T10:37:29;17.10;79.80
46754;DHT22;32500;50.620;3.400;2023-05-02T10:39:58;17.10;79.90
46754;DHT22;32500;50.620;3.400;2023-05-02T10:42:25;17.10;80.00
46754;DHT22;32500;50.620;3.400;2023-05-02T10:44:52;17.20;80.20
46754;DHT22;32500;50.620;3.400;2023-05-02T10:47:22;17.20;80.30
46754;DHT22;32500;50.620;3.400;2023-05-02T10:50:08;17.20;80.30
46754;DHT22;32500;50.620;3.400;2023-05-02T10:52:36;17.20;80.20
46754;DHT22;32500;50.620;3.400;2023-05-02T10:55:22;17.20;80.10
46754;DHT22;32500;50.620;3.400;2023-05-02T11:00:32;17.20;79.10
46754;DHT22;32500;50.620;3.400;2023-05-02T11:02:58;17.20;78.70
46754;DHT22;32500;50.620;3.400;2023-05-02T11:05:25;17.20;78.50
46754;DHT22;32500;50.620;3.400;2023-05-02T11:10:42;17.20;77.90
46754;DHT22;32500;50.620;3.400;2023-05-02T11:13:10;17.20;77.30
46754;DHT22;32500;50.620;3.400;2023-05-02T11:18:12;17.20;76.50
46754;DHT22;32500;50.620;3.400;2023-05-02T11:20:39;17.30;76.10
46754;DHT22;32500;50.620;3.400;2023-05-02T11:25:54;17.30;75.60
46754;DHT22;32500;50.620;3.400;2023-05-02T11:28:39;17.30;75.60
46754;DHT22;32500;50.620;3.400;2023-05-02T11:33:57;17.20;75.50
46754;DHT22;32500;50.620;3.400;2023-05-02T11:36:34;17.30;75.30
46754;DHT22;32500;50.620;3.400;2023-05-02T11:39:03;17.30;75.10
46754;DHT22;32500;50.620;3.400;2023-05-02T11:41:41;17.30;74.70
46754;DHT22;32500;50.620;3.400;2023-05-02T11:44:07;17.40;74.40
46754;DHT22;32500;50.620;3.400;2023-05-02T11:46:36;17.30;74.10
46754;DHT22;32500;50.620;3.400;2023-05-02T11:49:02;17.30;73.70
46754;DHT22;32500;50.620;3.400;2023-05-02T11:51:27;17.40;73.70
46754;DHT22;32500;50.620;3.400;2023-05-02T11:53:53;17.30;73.70
46754;DHT22;32500;50.620;3.400;2023-05-02T11:56:23;17.40;73.70
46754;DHT22;32500;50.620;3.400;2023-05-02T11:59:00;17.40;73.70
46754;DHT22;32500;50.620;3.400;2023-05-02T12:01:27;17.40;73.70
46754;DHT22;32500;50.620;3.400;2023-05-02T12:04:03;17.40;74.00
46754;DHT22;32500;50.620;3.400;2023-05-02T12:06:29;17.40;74.10
46754;DHT22;32500;50.620;3.400;2023-05-02T12:09:08;17.40;74.30
46754;DHT22;32500;50.620;3.400;2023-05-02T12:11:35;17.40;74.50
46754;DHT22;32500;50.620;3.400;2023-05-02T12:14:02;17.40;74.60
46754;DHT22;32500;50.620;3.400;2023-05-02T12:16:28;17.40;74.70
46754;DHT22;32500;50.620;3.400;2023-05-02T12:18:54;17.50;74.90
46754;DHT22;32500;50.620;3.400;2023-05-02T12:21:22;17.40;75.00
46754;DHT22;32500;50.620;3.400;2023-05-02T12:23:48;17.50;75.20
46754;DHT22;32500;50.620;3.400;2023-05-02T12:26:21;17.50;75.30
46754;DHT22;32500;50.620;3.400;2023-05-02T12:28:51;17.50;75.40
46754;DHT22;32500;50.620;3.400;2023-05-02T12:31:17;17.50;75.50
46754;DHT22;32500;50.620;3.400;2023-05-02T12:33:43;17.50;75.40
46754;DHT22;32500;50.620;3.400;2023-05-02T12:36:08;17.50;75.50
46754;DHT22;32500;50.620;3.400;2023-05-02T12:38:35;17.50;75.60
46754;DHT22;32500;50.620;3.400;2023-05-02T12:41:01;17.50;75.60
46754;DHT22;32500;50.620;3.400;2023-05-02T12:43:26;17.60;75.70
46754;DHT22;32500;50.620;3.400;2023-05-02T12:46:10;17.50;75.90
46754;DHT22;32500;50.620;3.400;2023-05-02T12:48:36;17.60;76.70
46754;DHT22;32500;50.620;3.400;2023-05-02T12:51:01;17.60;76.10
46754;DHT22;32500;50.620;3.400;2023-05-02T12:53:40;17.60;76.10
46754;DHT22;32500;50.620;3.400;2023-05-02T12:56:06;17.60;76.20
46754;DHT22;32500;50.620;3.400;2023-05-02T12:58:46;17.60;76.30
46754;DHT22;32500;50.620;3.400;2023-05-02T13:01:13;17.60;76.60
46754;DHT22;32500;50.620;3.400;2023-05-02T13:03:40;17.60;76.60
46754;DHT22;32500;50.620;3.400;2023-05-02T13:06:06;17.60;76.60
46754;DHT22;32500;50.620;3.400;2023-05-02T13:08:33;17.60;76.70
46754;DHT22;32500;50.620;3.400;2023-05-02T13:11:00;17.60;76.80
46754;DHT22;32500;50.620;3.400;2023-05-02T13:13:27;17.60;76.90
46754;DHT22;32500;50.620;3.400;2023-05-02T13:15:53;17.60;76.90
46754;DHT22;32500;50.620;3.400;2023-05-02T13:18:19;17.60;77.00
46754;DHT22;32500;50.620;3.400;2023-05-02T13:20:45;17.60;77.00
46754;DHT22;32500;50.620;3.400;2023-05-02T13:23:10;17.60;77.00
46754;DHT22;32500;50.620;3.400;2023-05-02T13:25:36;17.70;77.10
46754;DHT22;32500;50.620;3.400;2023-05-02T13:28:02;17.70;77.10
46754;DHT22;32500;50.620;3.400;2023-05-02T13:30:27;17.60;77.10
46754;DHT22;32500;50.620;3.400;2023-05-02T13:32:53;17.70;77.20
46754;DHT22;32500;50.620;3.400;2023-05-02T13:35:19;17.70;77.40
46754;DHT22;32500;50.620;3.400;2023-05-02T13:37:44;17.70;77.50
46754;DHT22;32500;50.620;3.400;2023-05-02T13:40:10;17.70;77.80
46754;DHT22;32500;50.620;3.400;2023-05-02T13:42:36;17.70;78.20
46754;DHT22;32500;50.620;3.400;2023-05-02T13:45:02;17.70;78.30
46754;DHT22;32500;50.620;3.400;2023-05-02T13:47:29;17.70;78.30
46754;DHT22;32500;50.620;3.400;2023-05-02T13:49:55;17.70;78.30
46754;DHT22;32500;50.620;3.400;2023-05-02T13:52:21;17.70;78.20
46754;DHT22;32500;50.620;3.400;2023-05-02T13:54:47;17.70;78.30
46754;DHT22;32500;50.620;3.400;2023-05-02T13:57:13;17.70;78.20
46754;DHT22;32500;50.620;3.400;2023-05-02T13:59:38;17.70;78.20
46754;DHT22;32500;50.620;3.400;2023-05-02T14:02:04;17.80;78.30
46754;DHT22;32500;50.620;3.400;2023-05-02T14:04:30;17.80;78.40
46754;DHT22;32500;50.620;3.400;2023-05-02T14:06:56;17.70;78.30
46754;DHT22;32500;50.620;3.400;2023-05-02T14:09:21;17.80;78.50
46754;DHT22;32500;50.620;3.400;2023-05-02T14:11:47;17.80;78.50
46754;DHT22;32500;50.620;3.400;2023-05-02T14:14:13;17.70;78.40
46754;DHT22;32500;50.620;3.400;2023-05-02T14:16:39;17.80;78.50
46754;DHT22;32500;50.620;3.400;2023-05-02T14:19:05;17.70;78.40
46754;DHT22;32500;50.620;3.400;2023-05-02T14:21:31;17.70;78.60
46754;DHT22;32500;50.620;3.400;2023-05-02T14:23:57;17.80;78.60
46754;DHT22;32500;50.620;3.400;2023-05-02T14:26:22;17.80;78.60
46754;DHT22;32500;50.620;3.400;2023-05-02T14:28:48;17.80;79.00
46754;DHT22;32500;50.620;3.400;2023-05-02T14:31:14;17.80;78.50
46754;DHT22;32500;50.620;3.400;2023-05-02T14:33:40;17.80;78.60
46754;DHT22;32500;50.620;3.400;2023-05-02T14:36:05;17.80;78.60
46754;DHT22;32500;50.620;3.400;2023-05-02T14:38:31;17.80;78.60
46754;DHT22;32500;50.620;3.400;2023-05-02T14:40:57;17.80;78.70
46754;DHT22;32500;50.620;3.400;2023-05-02T14:43:22;17.80;78.80
46754;DHT22;32500;50.620;3.400;2023-05-02T14:45:48;17.80;78.40
46754;DHT22;32500;50.620;3.400;2023-05-02T14:48:14;17.90;78.50
46754;DHT22;32500;50.620;3.400;2023-05-02T14:50:42;17.90;78.50
46754;DHT22;32500;50.620;3.400;2023-05-02T14:53:07;17.90;78.50
46754;DHT22;32500;50.620;3.400;2023-05-02T14:55:37;17.90;78.60
46754;DHT22;32500;50.620;3.400;2023-05-02T14:58:04;17.90;78.70
46754;DHT22;32500;50.620;3.400;2023-05-02T15:00:32;17.90;78.40
46754;DHT22;32500;50.620;3.400;2023-05-02T15:02:58;17.90;78.50
46754;DHT22;32500;50.620;3.400;2023-05-02T15:05:23;17.90;78.60
46754;DHT22;32500;50.620;3.400;2023-05-02T15:07:49;17.90;78.70
46754;DHT22;32500;50.620;3.400;2023-05-02T15:10:15;17.90;78.50
46754;DHT22;32500;50.620;3.400;2023-05-02T15:12:40;17.90;78.50
46754;DHT22;32500;50.620;3.400;2023-05-02T15:15:08;17.90;78.50
46754;DHT22;32500;50.620;3.400;2023-05-02T15:17:34;17.90;78.50
46754;DHT22;32500;50.620;3.400;2023-05-02T15:19:59;18.00;78.50
46754;DHT22;32500;50.620;3.400;2023-05-02T15:22:25;18.00;78.50
46754;DHT22;32500;50.620;3.400;2023-05-02T15:24:51;18.00;78.00
46754;DHT22;32500;50.620;3.400;2023-05-02T15:27:16;18.00;78.20
46754;DHT22;32500;50.620;3.400;2023-05-02T15:29:42;18.00;78.70
46754;DHT22;32500;50.620;3.400;2023-05-02T15:32:08;18.00;78.10
46754;DHT22;32500;50.620;3.400;2023-05-02T15:34:33;18.00;77.90
46754;DHT22;32500;50.620;3.400;2023-05-02T15:36:59;18.00;78.00
46754;DHT22;32500;50.620;3.400;2023-05-02T15:39:27;18.00;78.10
46754;DHT22;32500;50.620;3.400;2023-05-02T15:41:53;18.10;78.00
46754;DHT22;32500;50.620;3.400;2023-05-02T15:44:19;18.00;77.90
46754;DHT22;32500;50.620;3.400;2023-05-02T15:46:45;18.00;77.80
46754;DHT22;32500;50.620;3.400;2023-05-02T15:49:11;18.00;77.10
46754;DHT22;32500;50.620;3.400;2023-05-02T15:51:38;18.00;77.00
46754;DHT22;32500;50.620;3.400;2023-05-02T15:54:05;18.00;76.60
46754;DHT22;32500;50.620;3.400;2023-05-02T15:56:31;18.00;75.30
46754;DHT22;32500;50.620;3.400;2023-05-02T15:58:57;18.00;74.20
46754;DHT22;32500;50.620;3.400;2023-05-02T16:01:22;17.90;73.90
46754;DHT22;32500;50.620;3.400;2023-05-02T16:03:48;18.00;75.00
46754;DHT22;32500;50.620;3.400;2023-05-02T16:06:14;18.00;73.50
46754;DHT22;32500;50.620;3.400;2023-05-02T16:08:41;17.90;67.80
46754;DHT22;32500;50.620;3.400;2023-05-02T16:11:07;17.90;68.20
46754;DHT22;32500;50.620;3.400;2023-05-02T16:13:33;17.90;66.10
46754;DHT22;32500;50.620;3.400;2023-05-02T16:15:59;17.90;65.40
46754;DHT22;32500;50.620;3.400;2023-05-02T16:18:24;17.90;67.50
46754;DHT22;32500;50.620;3.400;2023-05-02T16:20:54;17.90;67.50